createdAt,value
2018-12-10T00:00:01.641Z,43.30
2018-12-10T00:02:30.526Z,44.20
2018-12-10T00:05:01.258Z,43.07
2018-12-10T00:07:31.983Z,43.33
2018-12-10T00:10:01.211Z,43.93
2018-12-10T00:12:30.007Z,43.23
2018-12-10T00:14:58.801Z,43.30
2018-12-10T00:17:27.665Z,43.17
2018-12-10T00:19:56.428Z,43.10
2018-12-10T00:22:25.210Z,42.97
2018-12-10T00:24:54.043Z,43.37
2018-12-10T00:27:22.850Z,43.27
2018-12-10T00:29:51.634Z,43.23
2018-12-10T00:32:20.412Z,42.63
2018-12-10T00:34:49.189Z,43.00
2018-12-10T00:37:17.977Z,43.77
2018-12-10T00:39:46.826Z,43.07
2018-12-10T00:42:15.604Z,42.47
2018-12-10T00:44:44.381Z,42.73
2018-12-10T00:47:13.166Z,43.23
2018-12-10T00:49:41.962Z,42.83
2018-12-10T00:52:10.747Z,42.30
2018-12-10T00:54:39.571Z,42.97
2018-12-10T00:57:08.370Z,42.80
2018-12-10T00:59:37.158Z,43.23
2018-12-10T01:02:06.993Z,43.00
2018-12-10T01:04:35.833Z,42.90
2018-12-10T01:07:04.894Z,43.00
2018-12-10T01:09:33.702Z,43.77
2018-12-10T01:12:03.241Z,43.00
2018-12-10T01:14:32.131Z,43.40
2018-12-10T01:17:01.074Z,42.80
2018-12-10T01:19:29.858Z,43.17
2018-12-10T01:21:58.660Z,42.53
2018-12-10T01:24:27.457Z,42.07
2018-12-10T01:26:56.264Z,42.23
2018-12-10T01:29:25.072Z,42.70
2018-12-10T01:31:53.984Z,42.30
2018-12-10T01:34:22.789Z,43.40
2018-12-10T01:36:51.572Z,42.93
2018-12-10T01:39:20.369Z,42.80
2018-12-10T01:41:49.143Z,43.23
2018-12-10T01:44:18.010Z,43.20
2018-12-10T01:46:46.882Z,42.83
2018-12-10T01:49:15.759Z,42.50
2018-12-10T01:51:44.651Z,42.67
2018-12-10T01:54:13.449Z,43.10
2018-12-10T01:56:42.238Z,43.00
2018-12-10T01:59:11.091Z,43.20
2018-12-10T02:01:39.960Z,43.00
2018-12-10T02:04:08.750Z,42.57
2018-12-10T02:06:37.534Z,42.57
2018-12-10T02:09:06.625Z,43.17
2018-12-10T02:11:36.625Z,43.53
2018-12-10T02:14:05.520Z,43.03
2018-12-10T02:16:34.371Z,43.13
2018-12-10T02:19:03.162Z,42.90
2018-12-10T02:21:31.946Z,42.63
2018-12-10T02:24:00.785Z,42.17
2018-12-10T02:26:29.558Z,42.83
2018-12-10T02:29:03.808Z,42.57
2018-12-10T02:31:33.781Z,42.67
2018-12-10T02:34:02.710Z,42.43
2018-12-10T02:36:31.509Z,42.77
2018-12-10T02:39:00.290Z,42.70
2018-12-10T02:41:29.160Z,43.50
2018-12-10T02:43:57.962Z,41.90
2018-12-10T02:46:26.748Z,42.53
2018-12-10T02:48:55.632Z,42.30
2018-12-10T02:51:24.402Z,42.20
2018-12-10T02:53:53.199Z,42.03
2018-12-10T02:56:21.982Z,43.03
2018-12-10T02:58:50.772Z,42.23
2018-12-10T03:01:19.575Z,42.60
2018-12-10T03:03:48.372Z,43.43
2018-12-10T03:06:17.155Z,43.27
2018-12-10T03:08:45.941Z,42.67
2018-12-10T03:11:14.794Z,42.53
2018-12-10T03:13:43.635Z,44.43
2018-12-10T03:16:12.426Z,43.63
2018-12-10T03:18:41.343Z,43.97
2018-12-10T03:21:10.235Z,43.50
2018-12-10T03:23:39.081Z,44.47
2018-12-10T03:26:07.927Z,44.23
2018-12-10T03:28:36.739Z,45.03
2018-12-10T03:31:05.513Z,44.33
2018-12-10T03:33:34.344Z,44.93
2018-12-10T03:36:03.435Z,44.60
2018-12-10T03:38:32.218Z,44.53
2018-12-10T03:41:01.425Z,44.47
2018-12-10T03:43:30.253Z,44.50
2018-12-10T03:45:59.037Z,43.93
2018-12-10T03:48:27.895Z,44.40
2018-12-10T03:50:56.684Z,44.37
2018-12-10T03:53:25.647Z,42.97
2018-12-10T03:55:54.485Z,43.60
2018-12-10T03:58:23.295Z,43.27
2018-12-10T04:00:52.099Z,43.67
2018-12-10T04:03:20.907Z,42.57
2018-12-10T04:05:49.681Z,43.43
2018-12-10T04:08:18.529Z,43.77
2018-12-10T04:10:47.319Z,43.33
2018-12-10T04:13:16.098Z,43.10
2018-12-10T04:15:45.212Z,43.03
2018-12-10T04:18:13.986Z,43.27
2018-12-10T04:20:42.783Z,42.97
2018-12-10T04:23:11.629Z,43.13
2018-12-10T04:25:42.359Z,42.97
2018-12-10T04:28:11.130Z,42.43
2018-12-10T04:30:39.941Z,42.80
2018-12-10T04:33:08.778Z,42.57
2018-12-10T04:35:37.579Z,42.33
2018-12-10T04:38:06.512Z,42.93
2018-12-10T04:40:35.517Z,43.10
2018-12-10T04:43:04.405Z,42.00
2018-12-10T04:45:33.200Z,42.00
2018-12-10T04:48:01.986Z,42.93
2018-12-10T04:50:30.782Z,42.17
2018-12-10T04:52:59.647Z,42.40
2018-12-10T04:55:28.429Z,42.37
2018-12-10T04:57:57.212Z,42.47
2018-12-10T05:00:26.022Z,42.67
2018-12-10T05:02:54.818Z,42.23
2018-12-10T05:05:23.651Z,42.73
2018-12-10T05:07:52.442Z,42.47
2018-12-10T05:10:21.249Z,42.13
2018-12-10T05:12:50.065Z,42.63
2018-12-10T05:15:18.855Z,42.30
2018-12-10T05:17:47.646Z,42.43
2018-12-10T05:20:16.521Z,42.73
2018-12-10T05:22:45.312Z,42.33
2018-12-10T05:25:14.114Z,42.70
2018-12-10T05:27:42.904Z,42.73
2018-12-10T05:30:11.775Z,42.40
2018-12-10T05:32:40.730Z,42.57
2018-12-10T05:35:09.521Z,42.60
2018-12-10T05:37:38.322Z,42.63
2018-12-10T05:40:07.297Z,42.30
2018-12-10T05:42:36.181Z,42.20
2018-12-10T05:45:06.597Z,42.50
2018-12-10T05:47:35.383Z,42.43
2018-12-10T05:50:05.014Z,42.53
2018-12-10T05:52:33.829Z,42.33
2018-12-10T05:55:02.609Z,41.83
2018-12-10T05:57:31.382Z,42.53
2018-12-10T06:00:00.158Z,42.77
2018-12-10T06:02:29.019Z,43.03
2018-12-10T06:04:57.798Z,43.03
2018-12-10T06:07:26.589Z,43.57
2018-12-10T06:09:55.390Z,43.40
2018-12-10T06:12:24.162Z,44.17
2018-12-10T06:14:53.006Z,44.17
2018-12-10T06:17:21.826Z,44.23
2018-12-10T06:19:50.605Z,43.77
2018-12-10T06:22:19.438Z,43.70
2018-12-10T06:24:48.228Z,43.73
2018-12-10T06:27:17.001Z,43.83
2018-12-10T06:29:45.846Z,43.50
2018-12-10T06:32:14.721Z,43.03
2018-12-10T06:34:43.517Z,42.93
2018-12-10T06:37:12.467Z,43.40
2018-12-10T06:39:41.307Z,42.43
2018-12-10T06:42:10.139Z,42.77
2018-12-10T06:44:38.986Z,42.70
2018-12-10T06:47:07.876Z,42.70
2018-12-10T06:49:36.657Z,42.33
2018-12-10T06:52:05.446Z,42.33
2018-12-10T06:54:34.238Z,42.13
2018-12-10T06:57:03.230Z,42.30
2018-12-10T06:59:32.002Z,41.90
2018-12-10T07:02:00.866Z,42.07
2018-12-10T07:04:30.830Z,41.77
2018-12-10T07:06:59.669Z,42.13
2018-12-10T07:09:28.446Z,42.27
2018-12-10T07:11:57.240Z,41.70
2018-12-10T07:14:26.015Z,42.13
2018-12-10T07:16:54.806Z,42.30
2018-12-10T07:19:23.592Z,41.97
2018-12-10T07:21:52.434Z,44.93
2018-12-10T07:24:21.305Z,41.47
2018-12-10T07:26:50.082Z,41.73
2018-12-10T07:29:18.879Z,42.20
2018-12-10T07:31:47.683Z,42.27
2018-12-10T07:34:16.676Z,41.57
2018-12-10T07:36:45.650Z,41.90
2018-12-10T07:39:14.426Z,41.50
2018-12-10T07:41:43.289Z,42.17
2018-12-10T07:44:12.417Z,41.80
2018-12-10T07:46:42.723Z,41.53
2018-12-10T07:49:11.588Z,42.40
2018-12-10T07:51:40.471Z,41.60
2018-12-10T07:54:10.042Z,41.50
2018-12-10T07:56:38.826Z,41.73
2018-12-10T07:59:07.608Z,42.30
2018-12-10T08:01:36.534Z,41.57
2018-12-10T08:04:05.343Z,42.33
2018-12-10T08:06:34.119Z,41.40
2018-12-10T08:09:04.418Z,42.07
2018-12-10T08:11:34.319Z,41.90
2018-12-10T08:14:03.649Z,41.93
2018-12-10T08:16:32.483Z,41.83
2018-12-10T08:19:01.290Z,42.30
2018-12-10T08:21:30.167Z,44.20
2018-12-10T08:23:58.979Z,42.00
2018-12-10T08:26:27.821Z,41.50
2018-12-10T08:29:03.829Z,41.80
2018-12-10T08:31:27.466Z,41.30
2018-12-10T08:33:56.250Z,41.40
2018-12-10T08:36:25.095Z,41.53
2018-12-10T08:38:53.959Z,42.43
2018-12-10T08:41:22.791Z,42.17
2018-12-10T08:43:51.601Z,42.00
2018-12-10T08:46:20.385Z,42.37
2018-12-10T08:48:49.174Z,42.40
2018-12-10T08:51:17.973Z,42.80
2018-12-10T08:53:47.031Z,42.70
2018-12-10T08:56:15.870Z,42.50
2018-12-10T08:58:44.666Z,42.60
2018-12-10T09:01:13.519Z,43.07
2018-12-10T09:03:42.315Z,42.47
2018-12-10T09:06:11.221Z,43.10
2018-12-10T09:08:39.993Z,43.13
2018-12-10T09:11:08.790Z,43.63
2018-12-10T09:13:37.598Z,43.03
2018-12-10T09:16:06.486Z,42.93
2018-12-10T09:18:36.314Z,43.67
2018-12-10T09:21:05.405Z,43.07
2018-12-10T09:23:34.189Z,43.30
2018-12-10T09:26:03.077Z,42.47
2018-12-10T09:28:32.173Z,43.37
2018-12-10T09:31:00.959Z,42.70
2018-12-10T09:33:29.761Z,43.00
2018-12-10T09:35:58.539Z,42.87
2018-12-10T09:38:27.318Z,42.90
2018-12-10T09:40:56.113Z,43.43
2018-12-10T09:43:24.903Z,42.83
2018-12-10T09:45:53.708Z,43.07
2018-12-10T09:48:22.514Z,43.40
2018-12-10T09:50:51.397Z,42.90
2018-12-10T09:53:20.180Z,43.37
2018-12-10T09:55:48.972Z,43.27
2018-12-10T09:58:17.773Z,43.47
2018-12-10T10:00:46.544Z,43.23
2018-12-10T10:03:15.329Z,43.03
2018-12-10T10:05:45.252Z,43.47
2018-12-10T10:08:14.131Z,43.47
2018-12-10T10:10:42.935Z,43.57
2018-12-10T10:13:11.731Z,43.47
2018-12-10T10:15:40.755Z,43.67
2018-12-10T10:18:09.546Z,43.07
2018-12-10T10:20:38.421Z,43.17
2018-12-10T10:23:07.298Z,42.83
2018-12-10T10:25:36.254Z,43.20
2018-12-10T10:28:05.129Z,43.53
2018-12-10T10:30:33.913Z,43.23
2018-12-10T10:33:02.711Z,43.20
2018-12-10T10:35:31.505Z,43.40
2018-12-10T10:38:00.475Z,44.03
2018-12-10T10:40:29.477Z,43.80
2018-12-10T10:42:58.349Z,43.93
2018-12-10T10:45:34.463Z,43.57
2018-12-10T10:47:58.128Z,43.37
2018-12-10T10:50:27.017Z,42.80
2018-12-10T10:52:55.901Z,42.97
2018-12-10T10:55:24.782Z,43.23
2018-12-10T10:57:53.622Z,43.30
2018-12-10T11:00:27.819Z,43.20
2018-12-10T11:03:01.922Z,42.97
2018-12-10T11:05:30.762Z,43.67
2018-12-10T11:07:59.644Z,43.77
2018-12-10T11:10:28.422Z,44.03
2018-12-10T11:12:57.339Z,44.40
2018-12-10T11:15:27.440Z,44.90
2018-12-10T11:17:56.341Z,45.23
2018-12-10T11:20:25.206Z,45.00
2018-12-10T11:22:54.004Z,45.23
2018-12-10T11:25:22.825Z,45.70
2018-12-10T11:27:51.648Z,46.23
2018-12-10T11:30:20.518Z,45.43
2018-12-10T11:32:49.308Z,44.80
2018-12-10T11:35:18.234Z,45.63
2018-12-10T11:37:47.036Z,45.47
2018-12-10T11:40:15.988Z,45.50
2018-12-10T11:42:44.936Z,46.53
2018-12-10T11:45:13.709Z,46.53
2018-12-10T11:47:42.498Z,46.67
2018-12-10T11:50:11.375Z,46.40
2018-12-10T11:52:40.226Z,45.93
2018-12-10T11:55:09.009Z,46.77
2018-12-10T11:57:37.806Z,47.30
2018-12-10T12:00:09.834Z,46.70
2018-12-10T12:02:38.655Z,46.83
2018-12-10T12:05:07.617Z,46.77
2018-12-10T12:07:36.402Z,46.70
2018-12-10T12:10:07.148Z,46.67
2018-12-10T12:12:36.078Z,47.67
2018-12-10T12:15:06.159Z,47.60
2018-12-10T12:17:35.003Z,46.83
2018-12-10T12:20:04.984Z,47.63
2018-12-10T12:22:33.773Z,47.43
2018-12-10T12:25:02.666Z,48.10
2018-12-10T12:27:31.518Z,47.90
2018-12-10T12:30:00.322Z,47.20
2018-12-10T12:32:29.192Z,48.37
2018-12-10T12:34:57.991Z,48.07
2018-12-10T12:37:26.811Z,47.80
2018-12-10T12:39:55.612Z,47.03
2018-12-10T12:42:24.420Z,48.33
2018-12-10T12:44:53.204Z,47.83
2018-12-10T12:47:21.995Z,47.70
2018-12-10T12:49:51.701Z,46.53
2018-12-10T12:52:20.548Z,47.80
2018-12-10T12:54:49.434Z,47.53
2018-12-10T12:57:18.226Z,48.13
2018-12-10T12:59:47.086Z,48.87
2018-12-10T13:02:17.092Z,47.87
2018-12-10T13:04:45.842Z,48.03
2018-12-10T13:07:14.627Z,48.70
2018-12-10T13:09:46.089Z,49.33
2018-12-10T13:12:15.069Z,48.93
2018-12-10T13:14:43.872Z,48.07
2018-12-10T13:17:12.662Z,48.00
2018-12-10T13:19:41.458Z,47.90
2018-12-10T13:22:10.332Z,47.43
2018-12-10T13:24:39.146Z,47.57
2018-12-10T13:27:08.025Z,47.50
2018-12-10T13:29:36.811Z,47.27
2018-12-10T13:32:05.607Z,48.10
2018-12-10T13:34:34.395Z,47.77
2018-12-10T13:37:03.243Z,47.70
2018-12-10T13:39:32.112Z,48.30
2018-12-10T13:42:00.950Z,47.27
2018-12-10T13:44:29.755Z,47.57
2018-12-10T13:46:58.654Z,47.47
2018-12-10T13:49:27.492Z,47.60
2018-12-10T13:51:59.745Z,48.07
2018-12-10T13:54:28.551Z,47.37
2018-12-10T13:56:57.403Z,47.03
2018-12-10T13:59:26.208Z,47.53
2018-12-10T14:01:54.998Z,47.07
2018-12-10T14:04:27.663Z,47.57
2018-12-10T14:06:56.496Z,47.67
2018-12-10T14:09:25.370Z,47.37
2018-12-10T14:11:54.155Z,47.53
2018-12-10T14:14:22.962Z,46.63
2018-12-10T14:16:51.753Z,47.73
2018-12-10T14:19:20.549Z,46.33
2018-12-10T14:21:49.370Z,46.60
2018-12-10T14:24:18.246Z,46.60
2018-12-10T14:26:47.039Z,46.70
2018-12-10T14:29:15.982Z,46.57
2018-12-10T14:31:44.907Z,46.57
2018-12-10T14:34:19.102Z,46.57
2018-12-10T14:36:47.989Z,46.20
2018-12-10T14:39:16.910Z,47.17
2018-12-10T14:41:45.819Z,46.63
2018-12-10T14:44:14.774Z,46.67
2018-12-10T14:46:44.460Z,46.63
2018-12-10T14:49:13.319Z,46.83
2018-12-10T14:51:42.102Z,46.80
2018-12-10T14:54:10.904Z,45.90
2018-12-10T14:56:39.670Z,45.93
2018-12-10T14:59:08.535Z,46.70
2018-12-10T15:01:37.753Z,46.83
2018-12-10T15:04:06.562Z,46.70
2018-12-10T15:06:35.353Z,46.23
2018-12-10T15:09:06.463Z,46.67
2018-12-10T15:11:36.147Z,46.13
2018-12-10T15:14:05.022Z,47.03
2018-12-10T15:16:33.831Z,47.53
2018-12-10T15:19:02.657Z,46.90
2018-12-10T15:21:34.202Z,46.27
2018-12-10T15:24:03.495Z,45.87
2018-12-10T15:26:32.358Z,46.40
2018-12-10T15:29:01.222Z,46.30
2018-12-10T15:31:30.012Z,46.83
2018-12-10T15:33:58.888Z,46.83
2018-12-10T15:36:27.691Z,46.83
2018-12-10T15:38:56.481Z,47.23
2018-12-10T15:41:25.265Z,46.37
2018-12-10T15:43:54.037Z,46.30
2018-12-10T15:46:25.065Z,47.80
2018-12-10T15:48:56.420Z,48.10
2018-12-10T15:51:25.217Z,46.00
2018-12-10T15:53:54.015Z,45.93
2018-12-10T15:56:22.878Z,46.67
2018-12-10T15:58:51.667Z,47.10
2018-12-10T16:01:20.538Z,46.43
2018-12-10T16:03:49.323Z,46.30
2018-12-10T16:06:18.108Z,46.07
2018-12-10T16:08:46.902Z,46.63
2018-12-10T16:11:15.704Z,46.70
2018-12-10T16:13:44.502Z,46.40
2018-12-10T16:16:13.366Z,46.10
2018-12-10T16:18:42.163Z,46.70
2018-12-10T16:21:12.144Z,47.37
2018-12-10T16:23:40.918Z,46.07
2018-12-10T16:26:10.780Z,46.70
2018-12-10T16:28:39.694Z,46.23
2018-12-10T16:31:08.570Z,46.07
2018-12-10T16:33:37.378Z,45.83
2018-12-10T16:36:06.621Z,46.37
2018-12-10T16:38:35.426Z,46.27
2018-12-10T16:41:04.291Z,46.67
2018-12-10T16:43:33.083Z,46.73
2018-12-10T16:46:01.962Z,46.20
2018-12-10T16:48:30.727Z,46.70
2018-12-10T16:50:59.530Z,46.87
2018-12-10T16:53:28.326Z,46.23
2018-12-10T16:55:57.128Z,46.57
2018-12-10T16:58:25.918Z,47.07
2018-12-10T17:00:54.723Z,46.23
2018-12-10T17:03:23.495Z,46.53
2018-12-10T17:05:52.310Z,46.10
2018-12-10T17:08:22.228Z,47.00
2018-12-10T17:10:51.048Z,46.37
2018-12-10T17:13:19.845Z,46.23
2018-12-10T17:15:48.741Z,46.43
2018-12-10T17:18:17.560Z,47.23
2018-12-10T17:20:46.418Z,46.73
2018-12-10T17:23:15.418Z,46.43
2018-12-10T17:25:44.214Z,47.20
2018-12-10T17:28:12.986Z,46.93
2018-12-10T17:30:41.793Z,48.40
2018-12-10T17:33:10.753Z,48.53
2018-12-10T17:35:39.595Z,48.60
2018-12-10T17:38:08.387Z,49.57
2018-12-10T17:40:37.184Z,49.27
2018-12-10T17:43:06.116Z,48.57
2018-12-10T17:45:35.118Z,48.27
2018-12-10T17:48:04.055Z,47.67
2018-12-10T17:50:32.925Z,48.70
2018-12-10T17:53:01.758Z,48.37
2018-12-10T17:55:30.635Z,48.87
2018-12-10T17:57:59.427Z,47.83
2018-12-10T18:00:28.354Z,49.03
2018-12-10T18:02:57.677Z,49.60
2018-12-10T18:05:26.656Z,48.47
2018-12-10T18:07:55.471Z,48.10
2018-12-10T18:10:25.188Z,49.03
2018-12-10T18:12:53.954Z,48.90
2018-12-10T18:15:22.727Z,48.23
2018-12-10T18:17:52.910Z,48.30
2018-12-10T18:20:21.768Z,48.67
2018-12-10T18:22:50.572Z,48.43
2018-12-10T18:25:19.342Z,48.70
2018-12-10T18:27:48.225Z,48.97
2018-12-10T18:30:17.040Z,47.73
2018-12-10T18:32:45.897Z,48.17
2018-12-10T18:35:14.671Z,50.33
2018-12-10T18:37:44.639Z,47.67
2018-12-10T18:40:13.650Z,47.70
2018-12-10T18:42:42.551Z,47.87
2018-12-10T18:45:14.143Z,48.43
2018-12-10T18:47:43.119Z,48.63
2018-12-10T18:50:11.940Z,48.07
2018-12-10T18:52:40.760Z,48.23
2018-12-10T18:55:09.666Z,47.37
2018-12-10T18:57:38.474Z,48.90
2018-12-10T19:00:10.976Z,48.03
2018-12-10T19:02:41.209Z,48.07
2018-12-10T19:05:10.125Z,47.63
2018-12-10T19:07:38.928Z,50.23
2018-12-10T19:10:09.060Z,48.00
2018-12-10T19:12:38.274Z,47.60
2018-12-10T19:15:09.862Z,47.37
2018-12-10T19:17:38.655Z,48.23
2018-12-10T19:20:13.455Z,47.30
2018-12-10T19:22:38.942Z,47.83
2018-12-10T19:25:08.671Z,47.63
2018-12-10T19:27:37.498Z,47.13
2018-12-10T19:30:06.852Z,47.23
2018-12-10T19:32:35.686Z,47.30
2018-12-10T19:35:04.776Z,47.77
2018-12-10T19:37:33.640Z,47.67
2018-12-10T19:40:02.461Z,47.67
2018-12-10T19:42:32.320Z,47.37
2018-12-10T19:45:02.373Z,48.53
2018-12-10T19:47:31.350Z,47.67
2018-12-10T19:50:00.190Z,47.70
2018-12-10T19:52:29.086Z,47.43
2018-12-10T19:54:57.888Z,48.07
2018-12-10T19:57:26.733Z,47.93
2018-12-10T19:59:55.574Z,47.30
2018-12-10T20:02:24.693Z,47.80
2018-12-10T20:04:53.626Z,48.30
2018-12-10T20:07:22.587Z,47.00
2018-12-10T20:09:51.408Z,47.53
2018-12-10T20:12:20.278Z,47.50
2018-12-10T20:14:49.094Z,47.63
2018-12-10T20:17:17.928Z,48.57
2018-12-10T20:19:47.975Z,47.10
2018-12-10T20:22:16.803Z,47.27
2018-12-10T20:24:45.623Z,47.93
2018-12-10T20:27:14.454Z,47.37
2018-12-10T20:29:43.461Z,47.30
2018-12-10T20:32:12.315Z,46.93
2018-12-10T20:34:41.120Z,47.00
2018-12-10T20:37:10.078Z,47.27
2018-12-10T20:39:38.887Z,47.23
2018-12-10T20:42:07.714Z,47.67
2018-12-10T20:44:36.543Z,46.83
2018-12-10T20:47:06.051Z,47.17
2018-12-10T20:49:34.858Z,48.03
2018-12-10T20:52:04.009Z,47.27
2018-12-10T20:54:32.814Z,48.07
2018-12-10T20:57:01.602Z,47.57
2018-12-10T20:59:30.454Z,46.53
2018-12-10T21:01:59.244Z,47.60
2018-12-10T21:04:28.073Z,46.80
2018-12-10T21:06:56.893Z,47.23
2018-12-10T21:09:25.717Z,47.67
2018-12-10T21:11:54.595Z,47.23
2018-12-10T21:14:23.729Z,46.77
2018-12-10T21:16:52.564Z,47.40
2018-12-10T21:19:21.388Z,46.50
2018-12-10T21:21:50.166Z,48.23
2018-12-10T21:24:19.038Z,46.90
2018-12-10T21:26:47.839Z,46.93
2018-12-10T21:29:16.652Z,47.23
2018-12-10T21:31:45.488Z,46.97
2018-12-10T21:34:14.347Z,47.40
2018-12-10T21:36:43.157Z,46.87
2018-12-10T21:39:11.987Z,47.13
2018-12-10T21:41:40.795Z,46.63
2018-12-10T21:44:09.644Z,47.27
2018-12-10T21:46:38.412Z,46.80
2018-12-10T21:49:07.208Z,46.77
2018-12-10T21:51:35.999Z,46.57
2018-12-10T21:54:04.964Z,46.97
2018-12-10T21:56:33.736Z,46.80
2018-12-10T21:59:02.628Z,46.57
2018-12-10T22:01:31.418Z,46.50
2018-12-10T22:04:00.207Z,47.17
2018-12-10T22:06:29.066Z,46.97
2018-12-10T22:08:57.861Z,46.67
2018-12-10T22:11:26.682Z,46.80
2018-12-10T22:13:56.043Z,47.07
2018-12-10T22:16:24.865Z,46.23
2018-12-10T22:18:53.698Z,46.27
2018-12-10T22:21:22.482Z,46.10
2018-12-10T22:23:51.370Z,46.83
2018-12-10T22:26:20.234Z,46.30
2018-12-10T22:28:49.017Z,46.07
2018-12-10T22:31:17.801Z,46.27
2018-12-10T22:33:46.586Z,46.30
2018-12-10T22:36:15.511Z,46.07
2018-12-10T22:38:44.258Z,46.30
2018-12-10T22:41:13.129Z,46.17
2018-12-10T22:43:41.900Z,46.10
2018-12-10T22:46:10.826Z,45.70
2018-12-10T22:48:39.596Z,46.43
2018-12-10T22:51:08.393Z,45.90
2018-12-10T22:53:37.192Z,46.27
2018-12-10T22:56:06.035Z,46.87
2018-12-10T22:58:35.858Z,46.70
2018-12-10T23:01:04.862Z,46.07
2018-12-10T23:03:35.607Z,46.07
2018-12-10T23:06:04.526Z,46.20
2018-12-10T23:08:33.322Z,45.87
2018-12-10T23:11:02.105Z,46.43
2018-12-10T23:13:32.851Z,46.23
2018-12-10T23:16:01.648Z,46.10
2018-12-10T23:18:30.454Z,46.13
2018-12-10T23:20:59.354Z,46.33
2018-12-10T23:23:28.146Z,46.37
2018-12-10T23:25:56.915Z,46.93
2018-12-10T23:28:25.701Z,45.83
2018-12-10T23:30:54.523Z,46.23
2018-12-10T23:33:23.308Z,46.10
2018-12-10T23:35:52.113Z,46.40
2018-12-10T23:38:21.002Z,46.00
2018-12-10T23:40:50.290Z,46.73
2018-12-10T23:43:24.382Z,46.10
2018-12-10T23:45:53.417Z,46.20
2018-12-10T23:48:22.191Z,46.03
2018-12-10T23:50:50.985Z,46.20
2018-12-10T23:53:19.782Z,46.43
2018-12-10T23:55:48.571Z,46.53
2018-12-10T23:58:17.382Z,46.17
